createdAt,value
2022-11-29T00:00:07.031Z,11.87
2022-11-29T00:01:12.204Z,11.97
2022-11-29T00:02:15.554Z,12.04
2022-11-29T00:03:17.940Z,11.84
2022-11-29T00:04:21.377Z,11.70
2022-11-29T00:05:23.591Z,11.72
2022-11-29T00:06:29.256Z,11.63
2022-11-29T00:07:32.490Z,11.61
2022-11-29T00:08:35.084Z,11.51
2022-11-29T00:09:38.324Z,11.49
2022-11-29T00:10:41.941Z,11.46
2022-11-29T00:12:02.814Z,11.54
2022-11-29T00:13:06.152Z,11.38
2022-11-29T00:14:10.433Z,11.60
2022-11-29T00:15:13.895Z,11.53
2022-11-29T00:16:16.113Z,11.55
2022-11-29T00:17:19.420Z,11.50
2022-11-29T00:18:21.948Z,11.56
2022-11-29T00:19:25.174Z,11.51
2022-11-29T00:20:27.437Z,11.57
2022-11-29T00:21:30.969Z,11.30
2022-11-29T00:22:34.183Z,11.34
2022-11-29T00:23:36.901Z,11.45
2022-11-29T00:24:40.079Z,11.31
2022-11-29T00:25:43.700Z,11.28
2022-11-29T00:26:46.888Z,11.10
2022-11-29T00:27:49.012Z,10.92
2022-11-29T00:28:52.497Z,10.94
2022-11-29T00:29:54.781Z,11.10
2022-11-29T00:30:58.184Z,10.97
2022-11-29T00:32:00.556Z,11.12
2022-11-29T00:33:04.691Z,10.78
2022-11-29T00:34:07.204Z,10.85
2022-11-29T00:35:10.618Z,10.92
2022-11-29T00:36:13.370Z,11.01
2022-11-29T00:37:16.698Z,11.01
2022-11-29T00:38:18.975Z,10.94
2022-11-29T00:39:22.362Z,11.07
2022-11-29T00:40:24.718Z,11.17
2022-11-29T00:41:29.486Z,11.32
2022-11-29T00:42:32.222Z,11.41
2022-11-29T00:43:35.806Z,11.21
2022-11-29T00:44:39.029Z,11.16
2022-11-29T00:45:41.385Z,11.05
2022-11-29T00:46:44.748Z,11.09
2022-11-29T00:47:47.059Z,11.16
2022-11-29T00:48:50.516Z,11.14
2022-11-29T00:49:52.715Z,11.18
2022-11-29T00:50:56.128Z,11.10
2022-11-29T00:51:58.377Z,11.34
2022-11-29T00:53:01.589Z,11.16
2022-11-29T00:54:04.007Z,11.25
2022-11-29T00:55:08.243Z,11.08
2022-11-29T00:56:11.853Z,11.19
2022-11-29T00:57:16.489Z,10.95
2022-11-29T00:58:19.301Z,10.94
2022-11-29T00:59:22.686Z,11.14
2022-11-29T01:00:25.068Z,11.12
2022-11-29T01:01:28.262Z,11.10
2022-11-29T01:02:30.542Z,11.23
2022-11-29T01:03:34.213Z,11.32
2022-11-29T01:04:36.490Z,11.42
2022-11-29T01:05:40.550Z,11.23
2022-11-29T01:06:42.648Z,11.32
2022-11-29T01:07:45.930Z,11.31
2022-11-29T01:08:48.349Z,11.21
2022-11-29T01:09:51.547Z,11.06
2022-11-29T01:11:02.225Z,11.09
2022-11-29T01:12:06.067Z,11.13
2022-11-29T01:13:10.932Z,11.19
2022-11-29T01:14:14.586Z,11.06
2022-11-29T01:15:16.965Z,11.12
2022-11-29T01:16:20.661Z,11.19
2022-11-29T01:17:22.985Z,11.11
2022-11-29T01:18:26.661Z,11.12
2022-11-29T01:19:29.991Z,11.10
2022-11-29T01:20:32.339Z,11.14
2022-11-29T01:21:35.758Z,11.17
2022-11-29T01:22:38.769Z,11.02
2022-11-29T01:23:42.831Z,11.14
2022-11-29T01:24:45.260Z,10.96
2022-11-29T01:25:57.499Z,11.16
2022-11-29T01:26:59.866Z,11.17
2022-11-29T01:28:03.045Z,11.22
2022-11-29T01:29:06.714Z,11.07
2022-11-29T01:30:11.317Z,11.18
2022-11-29T01:31:16.161Z,11.14
2022-11-29T01:32:19.465Z,11.21
2022-11-29T01:33:21.974Z,11.35
2022-11-29T01:34:25.150Z,11.38
2022-11-29T01:35:27.344Z,11.39
2022-11-29T01:36:30.990Z,11.24
2022-11-29T01:37:33.425Z,11.34
2022-11-29T01:38:37.992Z,11.49
2022-11-29T01:39:40.209Z,11.42
2022-11-29T01:40:43.609Z,11.25
2022-11-29T01:41:45.781Z,11.21
2022-11-29T01:42:48.985Z,11.25
2022-11-29T01:43:55.717Z,11.16
2022-11-29T01:45:15.201Z,11.12
2022-11-29T01:46:17.447Z,11.23
2022-11-29T01:47:20.885Z,11.36
2022-11-29T01:48:26.048Z,11.36
2022-11-29T01:49:33.783Z,11.52
2022-11-29T01:50:37.511Z,11.58
2022-11-29T01:51:44.144Z,11.63
2022-11-29T01:52:47.707Z,11.63
2022-11-29T01:53:51.152Z,11.66
2022-11-29T01:54:58.406Z,11.69
2022-11-29T01:56:05.795Z,11.63
2022-11-29T01:57:09.060Z,11.64
2022-11-29T01:58:12.881Z,11.64
2022-11-29T01:59:19.518Z,11.62
2022-11-29T02:00:24.472Z,11.48
2022-11-29T02:01:26.736Z,11.46
2022-11-29T02:02:34.137Z,11.41
2022-11-29T02:03:36.432Z,11.35
2022-11-29T02:04:40.721Z,11.17
2022-11-29T02:05:47.444Z,11.32
2022-11-29T02:06:50.956Z,11.19
2022-11-29T02:07:55.236Z,11.13
2022-11-29T02:08:58.618Z,10.85
2022-11-29T02:10:01.428Z,10.95
2022-11-29T02:11:30.419Z,10.85
2022-11-29T02:12:46.592Z,10.91
2022-11-29T02:13:57.907Z,11.07
2022-11-29T02:15:31.535Z,11.01
2022-11-29T02:16:41.270Z,10.92
2022-11-29T02:18:00.087Z,10.92
2022-11-29T02:19:19.859Z,10.74
2022-11-29T02:20:54.924Z,10.87
2022-11-29T02:22:04.713Z,10.97
2022-11-29T02:23:28.990Z,10.92
2022-11-29T02:24:56.668Z,10.82
2022-11-29T02:26:10.314Z,10.74
2022-11-29T02:27:55.931Z,10.89
2022-11-29T02:29:30.916Z,10.89
2022-11-29T02:30:56.509Z,11.01
2022-11-29T02:32:36.144Z,11.02
2022-11-29T02:34:11.037Z,11.01
2022-11-29T02:35:24.558Z,11.10
2022-11-29T02:36:43.146Z,11.11
2022-11-29T02:38:16.960Z,11.22
2022-11-29T02:39:44.614Z,11.24
2022-11-29T02:41:12.295Z,11.01
2022-11-29T02:42:56.077Z,10.92
2022-11-29T02:44:21.733Z,11.18
2022-11-29T02:45:39.735Z,11.34
2022-11-29T02:46:55.770Z,11.51
2022-11-29T02:48:19.287Z,11.64
2022-11-29T02:49:37.284Z,11.36
2022-11-29T02:50:45.375Z,11.28
2022-11-29T02:51:57.154Z,11.07
2022-11-29T02:53:07.819Z,11.16
2022-11-29T02:54:17.613Z,11.02
2022-11-29T02:55:29.672Z,11.19
2022-11-29T02:56:42.172Z,11.29
2022-11-29T02:57:55.445Z,11.42
2022-11-29T02:59:05.009Z,11.08
2022-11-29T03:00:11.073Z,11.26
2022-11-29T03:01:19.895Z,11.34
2022-11-29T03:02:29.902Z,11.26
2022-11-29T03:03:39.992Z,11.24
2022-11-29T03:04:49.717Z,11.17
2022-11-29T03:05:59.327Z,10.87
2022-11-29T03:07:07.527Z,10.83
2022-11-29T03:08:19.655Z,10.68
2022-11-29T03:09:29.827Z,10.68
2022-11-29T03:10:40.674Z,10.55
2022-11-29T03:11:48.816Z,10.51
2022-11-29T03:12:55.136Z,10.52
2022-11-29T03:14:13.431Z,10.57
2022-11-29T03:15:29.299Z,10.85
2022-11-29T03:16:43.696Z,10.74
2022-11-29T03:18:01.166Z,10.75
2022-11-29T03:19:15.543Z,10.83
2022-11-29T03:20:29.827Z,11.02
2022-11-29T03:21:41.939Z,10.99
2022-11-29T03:22:51.972Z,10.97
2022-11-29T03:23:57.672Z,10.85
2022-11-29T03:25:10.029Z,10.93
2022-11-29T03:26:16.096Z,11.13
2022-11-29T03:27:26.215Z,11.08
2022-11-29T03:28:32.391Z,11.14
2022-11-29T03:29:42.094Z,11.31
2022-11-29T03:30:52.980Z,11.17
2022-11-29T03:32:05.139Z,11.28
2022-11-29T03:33:13.255Z,11.31
2022-11-29T03:34:22.904Z,11.37
2022-11-29T03:35:33.828Z,11.22
2022-11-29T03:36:46.670Z,11.15
2022-11-29T03:37:58.155Z,11.23
2022-11-29T03:39:06.405Z,11.38
2022-11-29T03:40:10.959Z,11.42
2022-11-29T03:41:21.192Z,11.53
2022-11-29T03:42:30.009Z,11.46
2022-11-29T03:43:42.990Z,11.50
2022-11-29T03:45:02.640Z,11.30
2022-11-29T03:46:10.035Z,11.27
2022-11-29T03:47:15.429Z,11.19
2022-11-29T03:48:23.584Z,11.45
2022-11-29T03:49:31.616Z,11.42
2022-11-29T03:50:40.388Z,11.49
2022-11-29T03:51:53.296Z,11.41
2022-11-29T03:53:01.393Z,11.37
2022-11-29T03:54:09.912Z,11.33
2022-11-29T03:55:26.355Z,11.50
2022-11-29T03:56:31.756Z,11.55
2022-11-29T03:57:46.475Z,11.54
2022-11-29T03:58:54.719Z,11.59
2022-11-29T04:00:05.206Z,11.73
2022-11-29T04:01:39.449Z,11.86
2022-11-29T04:03:07.854Z,11.62
2022-11-29T04:04:48.831Z,11.52
2022-11-29T04:06:24.817Z,11.57
2022-11-29T04:07:37.253Z,11.62
2022-11-29T04:09:22.197Z,11.64
2022-11-29T04:10:47.380Z,11.62
2022-11-29T04:12:40.133Z,11.50
2022-11-29T04:14:02.030Z,11.38
2022-11-29T04:15:51.486Z,11.40
2022-11-29T04:17:33.728Z,11.18
2022-11-29T04:18:51.366Z,11.08
2022-11-29T04:20:24.147Z,11.02
2022-11-29T04:21:43.294Z,10.91
2022-11-29T04:23:25.440Z,11.07
2022-11-29T04:25:01.960Z,11.29
2022-11-29T04:26:33.554Z,11.27
2022-11-29T04:27:49.446Z,11.24
2022-11-29T04:29:15.731Z,11.43
2022-11-29T04:30:22.074Z,11.22
2022-11-29T04:31:36.961Z,11.19
2022-11-29T04:33:21.294Z,11.03
2022-11-29T04:35:07.806Z,11.07
2022-11-29T04:36:28.872Z,10.89
2022-11-29T04:39:24.245Z,10.91
2022-11-29T04:40:42.790Z,10.86
2022-11-29T04:42:05.892Z,10.84
2022-11-29T04:43:21.597Z,10.94
2022-11-29T04:44:51.808Z,10.93
2022-11-29T04:46:18.367Z,10.84
2022-11-29T04:47:48.312Z,10.77
2022-11-29T04:49:02.253Z,10.83
2022-11-29T04:50:18.301Z,10.69
2022-11-29T04:51:32.216Z,10.84
2022-11-29T04:52:59.242Z,10.66
2022-11-29T04:54:14.941Z,10.49
2022-11-29T04:55:31.085Z,10.58
2022-11-29T04:56:41.509Z,10.59
2022-11-29T04:57:51.680Z,10.61
2022-11-29T04:59:03.653Z,10.52
2022-11-29T05:00:10.155Z,10.33
2022-11-29T05:01:22.016Z,10.54
2022-11-29T05:02:33.586Z,10.54
2022-11-29T05:03:46.626Z,10.70
2022-11-29T05:04:56.639Z,10.45
2022-11-29T05:06:09.386Z,10.50
2022-11-29T05:07:28.149Z,10.49
2022-11-29T05:08:41.573Z,10.52
2022-11-29T05:10:00.340Z,10.68
2022-11-29T05:11:16.230Z,10.69
2022-11-29T05:12:25.421Z,10.68
2022-11-29T05:13:34.538Z,10.67
2022-11-29T05:14:51.929Z,10.65
2022-11-29T05:16:15.856Z,10.54
2022-11-29T05:17:32.911Z,10.63
2022-11-29T05:19:15.236Z,10.53
2022-11-29T05:20:36.005Z,10.49
2022-11-29T05:21:47.992Z,10.49
2022-11-29T05:23:07.157Z,10.63
2022-11-29T05:24:20.598Z,10.74
2022-11-29T05:25:37.076Z,10.72
2022-11-29T05:26:49.420Z,10.62
2022-11-29T05:27:58.800Z,10.73
2022-11-29T05:29:06.113Z,10.78
2022-11-29T05:30:13.531Z,10.94
2022-11-29T05:31:30.134Z,10.84
2022-11-29T05:32:39.947Z,10.75
2022-11-29T05:34:00.570Z,10.87
2022-11-29T05:35:36.341Z,10.66
2022-11-29T05:36:43.824Z,10.77
2022-11-29T05:37:50.700Z,10.75
2022-11-29T05:39:12.059Z,10.88
2022-11-29T05:40:45.213Z,11.01
2022-11-29T05:41:59.593Z,10.89
2022-11-29T05:43:20.144Z,10.83
2022-11-29T05:44:28.450Z,10.74
2022-11-29T05:45:38.368Z,10.68
2022-11-29T05:46:51.482Z,10.68
2022-11-29T05:48:01.612Z,10.74
2022-11-29T05:49:17.998Z,10.75
2022-11-29T05:50:28.567Z,10.80
2022-11-29T05:51:41.366Z,10.86
2022-11-29T05:52:52.149Z,10.89
2022-11-29T05:54:05.571Z,10.79
2022-11-29T05:55:23.312Z,10.94
2022-11-29T05:56:37.482Z,11.06
2022-11-29T05:57:49.183Z,10.93
2022-11-29T05:58:56.113Z,10.97
2022-11-29T06:00:02.455Z,11.09
2022-11-29T06:01:16.399Z,11.11
2022-11-29T06:02:34.124Z,11.23
2022-11-29T06:03:41.589Z,11.10
2022-11-29T06:04:59.931Z,11.05
2022-11-29T06:06:08.268Z,10.92
2022-11-29T06:07:17.506Z,11.00
2022-11-29T06:08:29.588Z,10.74
2022-11-29T06:09:41.056Z,10.71
2022-11-29T06:10:56.808Z,10.80
2022-11-29T06:12:06.995Z,10.76
2022-11-29T06:13:22.126Z,10.95
2022-11-29T06:14:42.904Z,10.78
2022-11-29T06:16:19.602Z,10.86
2022-11-29T06:17:42.467Z,10.78
2022-11-29T06:19:25.648Z,10.71
2022-11-29T06:20:50.601Z,10.80
2022-11-29T06:22:02.999Z,10.83
2022-11-29T06:23:30.849Z,10.84
2022-11-29T06:24:50.678Z,10.81
2022-11-29T06:26:07.428Z,10.90
2022-11-29T06:27:29.341Z,10.92
2022-11-29T06:28:54.599Z,10.82
2022-11-29T06:30:04.888Z,10.99
2022-11-29T06:31:16.790Z,11.02
2022-11-29T06:32:29.639Z,10.70
2022-11-29T06:33:41.886Z,10.79
2022-11-29T06:34:53.124Z,10.87
2022-11-29T06:36:11.095Z,11.09
2022-11-29T06:37:21.412Z,11.13
2022-11-29T06:38:27.498Z,10.97
2022-11-29T06:39:31.096Z,10.77
2022-11-29T06:40:33.920Z,10.81
2022-11-29T06:41:37.711Z,10.58
2022-11-29T06:42:41.349Z,10.57
2022-11-29T06:43:45.261Z,10.41
2022-11-29T06:44:49.152Z,10.43
2022-11-29T06:45:54.135Z,10.48
2022-11-29T06:47:04.762Z,10.44
2022-11-29T06:48:12.178Z,10.42
2022-11-29T06:49:23.216Z,10.34
2022-11-29T06:50:37.964Z,10.35
2022-11-29T06:51:53.587Z,10.51
2022-11-29T06:53:08.609Z,10.53
2022-11-29T06:54:26.989Z,10.57
2022-11-29T06:55:41.158Z,10.51
2022-11-29T06:56:56.397Z,10.62
2022-11-29T06:58:11.717Z,10.58
2022-11-29T06:59:32.981Z,10.30
2022-11-29T07:00:43.420Z,10.54
2022-11-29T07:01:51.975Z,10.47
2022-11-29T07:03:08.125Z,10.34
2022-11-29T07:04:31.987Z,10.38
2022-11-29T07:05:36.614Z,10.28
2022-11-29T07:06:39.404Z,10.46
2022-11-29T07:07:43.749Z,10.35
2022-11-29T07:08:48.551Z,10.42
2022-11-29T07:09:57.012Z,10.36
2022-11-29T07:11:01.280Z,10.35
2022-11-29T07:12:04.690Z,10.39
2022-11-29T07:13:13.418Z,10.44
2022-11-29T07:14:17.536Z,10.60
2022-11-29T07:15:23.883Z,10.50
2022-11-29T07:16:33.092Z,10.67
2022-11-29T07:17:43.694Z,10.62
2022-11-29T07:18:59.607Z,10.64
2022-11-29T07:20:11.748Z,10.53
2022-11-29T07:21:22.832Z,10.54
2022-11-29T07:22:46.106Z,10.57
2022-11-29T07:24:03.937Z,10.70
2022-11-29T07:25:20.512Z,10.74
2022-11-29T07:26:35.959Z,10.88
2022-11-29T07:27:47.516Z,10.59
2022-11-29T07:29:18.053Z,10.76
2022-11-29T07:30:21.922Z,10.66
2022-11-29T07:31:32.728Z,10.80
2022-11-29T07:32:50.364Z,10.92
2022-11-29T07:34:06.643Z,10.99
2022-11-29T07:35:18.179Z,11.18
2022-11-29T07:36:33.994Z,11.25
2022-11-29T07:37:45.282Z,11.32
2022-11-29T07:39:00.537Z,11.42
2022-11-29T07:40:14.317Z,11.44
2022-11-29T07:41:25.519Z,11.39
2022-11-29T07:42:37.557Z,11.52
2022-11-29T07:43:51.775Z,11.62
2022-11-29T07:45:06.529Z,11.70
2022-11-29T07:46:08.702Z,11.75
2022-11-29T07:47:12.061Z,11.83
2022-11-29T07:48:17.689Z,11.93
2022-11-29T07:49:19.823Z,11.93
2022-11-29T07:50:23.496Z,12.06
2022-11-29T07:51:27.015Z,11.96
2022-11-29T07:52:29.419Z,11.97
2022-11-29T07:53:32.908Z,12.02
2022-11-29T07:54:36.135Z,11.93
2022-11-29T07:55:38.540Z,11.95
2022-11-29T07:56:41.835Z,12.10
2022-11-29T07:57:44.055Z,11.92
2022-11-29T07:58:47.601Z,11.97
2022-11-29T07:59:50.924Z,11.94
2022-11-29T08:00:55.591Z,11.98
2022-11-29T08:01:58.936Z,12.00
2022-11-29T08:03:02.212Z,11.96
2022-11-29T08:04:04.557Z,11.94
2022-11-29T08:05:09.016Z,11.97
2022-11-29T08:06:11.328Z,12.08
2022-11-29T08:07:14.750Z,12.13
2022-11-29T08:08:18.011Z,12.17
2022-11-29T08:09:20.553Z,12.25
2022-11-29T08:10:24.313Z,12.29
2022-11-29T08:11:27.051Z,12.48
2022-11-29T08:12:30.265Z,12.56
2022-11-29T08:13:32.496Z,12.41
2022-11-29T08:14:35.754Z,12.46
2022-11-29T08:15:44.475Z,12.56
2022-11-29T08:16:49.196Z,12.68
2022-11-29T08:17:51.669Z,12.71
2022-11-29T08:18:54.956Z,12.74
2022-11-29T08:20:02.662Z,12.93
2022-11-29T08:21:08.360Z,13.07
2022-11-29T08:22:11.902Z,12.96
2022-11-29T08:23:16.026Z,13.01
2022-11-29T08:24:18.258Z,13.22
2022-11-29T08:25:21.657Z,13.14
2022-11-29T08:26:31.092Z,13.38
2022-11-29T08:27:33.847Z,13.26
2022-11-29T08:28:37.067Z,13.36
2022-11-29T08:29:39.293Z,13.58
2022-11-29T08:30:42.537Z,13.68
2022-11-29T08:31:46.188Z,13.92
2022-11-29T08:32:51.711Z,13.95
2022-11-29T08:33:55.199Z,13.96
2022-11-29T08:34:57.453Z,13.94
2022-11-29T08:36:06.247Z,14.13
2022-11-29T08:37:09.553Z,14.29
2022-11-29T08:38:12.736Z,14.43
2022-11-29T08:39:14.959Z,14.64
2022-11-29T08:40:18.616Z,14.57
2022-11-29T08:41:21.913Z,14.69
2022-11-29T08:42:24.292Z,14.79
2022-11-29T08:43:27.499Z,15.02
2022-11-29T08:44:31.780Z,15.19
2022-11-29T08:45:34.079Z,15.37
2022-11-29T08:46:55.040Z,15.49
2022-11-29T08:47:59.647Z,15.32
2022-11-29T08:49:02.019Z,15.02
2022-11-29T08:50:07.452Z,14.93
2022-11-29T08:51:10.712Z,15.18
2022-11-29T08:52:31.656Z,15.14
2022-11-29T08:53:42.920Z,14.85
2022-11-29T08:54:46.285Z,15.02
2022-11-29T08:55:50.644Z,14.88
2022-11-29T08:58:17.310Z,15.10
2022-11-29T08:59:20.956Z,15.22
2022-11-29T09:00:23.408Z,15.31
2022-11-29T09:01:26.871Z,15.26
2022-11-29T09:02:29.177Z,15.15
2022-11-29T09:03:52.180Z,15.09
2022-11-29T09:04:55.401Z,15.12
2022-11-29T09:05:59.358Z,15.14
2022-11-29T09:07:02.532Z,15.07
2022-11-29T09:08:05.108Z,15.23
2022-11-29T09:09:08.491Z,15.38
2022-11-29T09:10:11.554Z,15.38
2022-11-29T09:11:17.641Z,15.39
2022-11-29T09:12:20.012Z,15.48
2022-11-29T09:13:23.345Z,15.58
2022-11-29T09:14:26.847Z,15.60
2022-11-29T09:15:30.147Z,15.58
2022-11-29T09:16:37.262Z,15.50
2022-11-29T09:17:39.686Z,15.52
2022-11-29T09:18:50.052Z,15.73
2022-11-29T09:19:54.849Z,15.90
2022-11-29T09:20:57.049Z,15.99
2022-11-29T09:22:00.292Z,16.00
2022-11-29T09:23:02.781Z,16.15
2022-11-29T09:24:08.197Z,16.40
2022-11-29T09:25:10.512Z,16.36
2022-11-29T09:26:19.334Z,16.31
2022-11-29T09:27:22.720Z,16.47
2022-11-29T09:28:26.298Z,16.72
2022-11-29T09:29:29.786Z,16.88
2022-11-29T09:30:35.225Z,17.19
2022-11-29T09:31:38.187Z,17.26
2022-11-29T09:32:41.518Z,17.47
2022-11-29T09:33:45.967Z,17.57
2022-11-29T09:34:49.166Z,17.53
2022-11-29T09:35:52.406Z,17.51
2022-11-29T09:36:55.631Z,17.54
2022-11-29T09:37:58.061Z,17.33
2022-11-29T09:39:03.923Z,17.37
2022-11-29T09:40:08.726Z,17.57
2022-11-29T09:41:33.609Z,17.60
2022-11-29T09:42:48.921Z,17.76
2022-11-29T09:44:03.884Z,17.81
2022-11-29T09:45:10.858Z,17.99
2022-11-29T09:46:19.791Z,18.03
2022-11-29T09:47:39.916Z,18.18
2022-11-29T09:49:02.960Z,18.36
2022-11-29T09:50:22.584Z,18.00
2022-11-29T09:51:31.581Z,17.81
2022-11-29T09:52:47.115Z,17.74
2022-11-29T09:54:04.865Z,17.68
2022-11-29T09:55:24.042Z,17.50
2022-11-29T09:56:32.074Z,17.72
2022-11-29T09:57:34.719Z,17.78
2022-11-29T09:58:45.515Z,17.59
2022-11-29T09:59:51.119Z,17.63
2022-11-29T10:00:58.729Z,17.55
2022-11-29T10:02:07.496Z,17.76
2022-11-29T10:03:17.963Z,17.79
2022-11-29T10:04:28.699Z,17.92
2022-11-29T10:05:39.613Z,17.93
2022-11-29T10:06:47.349Z,18.16
2022-11-29T10:07:55.536Z,17.99
2022-11-29T10:09:04.639Z,17.81
2022-11-29T10:10:15.896Z,17.95
2022-11-29T10:11:23.300Z,17.97
2022-11-29T10:12:35.144Z,18.02
2022-11-29T10:13:40.603Z,18.19
2022-11-29T10:14:47.571Z,18.10
2022-11-29T10:15:54.359Z,17.63
2022-11-29T10:17:05.121Z,17.42
2022-11-29T10:18:18.254Z,17.35
2022-11-29T10:19:29.300Z,17.40
2022-11-29T10:20:40.472Z,17.42
2022-11-29T10:21:59.170Z,17.57
2022-11-29T10:23:08.113Z,17.83
2022-11-29T10:24:17.517Z,17.70
2022-11-29T10:25:26.063Z,17.49
2022-11-29T10:26:34.771Z,17.33
2022-11-29T10:27:42.169Z,17.32
2022-11-29T10:28:48.738Z,17.36
2022-11-29T10:29:52.675Z,17.39
2022-11-29T10:30:58.375Z,17.53
2022-11-29T10:32:10.044Z,17.39
2022-11-29T10:33:21.616Z,17.25
2022-11-29T10:34:28.032Z,17.45
2022-11-29T10:35:37.505Z,17.13
2022-11-29T10:36:44.441Z,16.99
2022-11-29T10:38:07.785Z,16.97
2022-11-29T10:39:17.971Z,16.85
2022-11-29T10:40:26.952Z,16.89
2022-11-29T10:41:30.274Z,16.80
2022-11-29T10:42:53.266Z,16.87
2022-11-29T10:43:58.762Z,16.99
2022-11-29T10:45:01.557Z,16.89
2022-11-29T10:46:05.401Z,16.99
2022-11-29T10:47:11.122Z,16.82
2022-11-29T10:48:17.370Z,16.72
2022-11-29T10:49:25.000Z,16.41
2022-11-29T10:50:31.644Z,16.61
2022-11-29T10:51:36.020Z,16.72
2022-11-29T10:52:39.462Z,16.77
2022-11-29T10:53:42.573Z,17.01
2022-11-29T10:54:48.484Z,16.88
2022-11-29T10:56:00.226Z,17.16
2022-11-29T10:57:09.902Z,17.45
2022-11-29T10:58:23.291Z,17.43
2022-11-29T10:59:33.067Z,17.40
2022-11-29T11:00:45.393Z,17.30
2022-11-29T11:01:48.989Z,17.43
2022-11-29T11:02:51.433Z,17.66
2022-11-29T11:03:56.726Z,17.41
2022-11-29T11:04:59.678Z,17.09
2022-11-29T11:06:12.180Z,17.24
2022-11-29T11:07:26.158Z,17.63
2022-11-29T11:08:29.844Z,17.55
2022-11-29T11:09:36.685Z,17.53
2022-11-29T11:10:39.515Z,17.41
2022-11-29T11:11:51.401Z,17.41
2022-11-29T11:13:03.486Z,17.83
2022-11-29T11:14:08.362Z,18.02
2022-11-29T11:15:16.993Z,17.66
2022-11-29T11:16:21.710Z,17.70
2022-11-29T11:17:27.337Z,17.83
2022-11-29T11:18:31.273Z,17.62
2022-11-29T11:19:36.041Z,17.87
2022-11-29T11:20:44.558Z,18.01
2022-11-29T11:21:49.869Z,17.99
2022-11-29T11:22:59.876Z,17.96
2022-11-29T11:24:03.680Z,18.00
2022-11-29T11:25:25.196Z,17.93
2022-11-29T11:26:29.177Z,18.06
2022-11-29T11:27:34.735Z,18.06
2022-11-29T11:28:43.624Z,18.11
2022-11-29T11:29:47.054Z,18.00
2022-11-29T11:30:52.125Z,18.06
2022-11-29T11:31:58.022Z,18.06
2022-11-29T11:33:19.770Z,18.21
2022-11-29T11:34:34.311Z,18.09
2022-11-29T11:35:37.413Z,18.05
2022-11-29T11:36:40.676Z,17.99
2022-11-29T11:37:57.666Z,18.01
2022-11-29T11:39:12.583Z,18.01
2022-11-29T11:40:26.226Z,18.17
2022-11-29T11:41:49.740Z,18.03
2022-11-29T11:42:53.401Z,17.86
2022-11-29T11:44:00.149Z,17.76
2022-11-29T11:45:06.137Z,17.58
2022-11-29T11:46:10.860Z,17.66
2022-11-29T11:47:19.410Z,17.63
2022-11-29T11:48:23.810Z,17.61
2022-11-29T11:49:30.692Z,17.91
2022-11-29T11:50:38.780Z,17.69
2022-11-29T11:51:44.256Z,17.71
2022-11-29T11:52:53.347Z,17.86
2022-11-29T11:53:58.836Z,17.67
2022-11-29T11:55:03.507Z,17.64
2022-11-29T11:56:10.217Z,17.71
2022-11-29T11:57:17.596Z,17.81
2022-11-29T11:58:23.961Z,17.80
2022-11-29T11:59:27.610Z,17.71
2022-11-29T12:02:27.195Z,17.17
2022-11-29T12:03:37.198Z,17.04
2022-11-29T12:04:40.772Z,16.98
2022-11-29T12:05:46.251Z,16.87
2022-11-29T12:06:53.579Z,16.71
2022-11-29T12:08:09.113Z,16.77
2022-11-29T12:09:33.637Z,17.04
2022-11-29T12:10:39.901Z,17.02
2022-11-29T12:11:47.752Z,16.99
2022-11-29T12:12:52.604Z,16.99
2022-11-29T12:13:59.234Z,16.76
2022-11-29T12:15:04.892Z,16.75
2022-11-29T12:16:14.980Z,16.45
2022-11-29T12:17:24.220Z,16.46
2022-11-29T12:18:35.458Z,16.46
2022-11-29T12:19:48.368Z,16.17
2022-11-29T12:20:57.351Z,16.20
2022-11-29T12:22:08.307Z,16.15
2022-11-29T12:23:25.282Z,16.11
2022-11-29T12:24:34.133Z,16.05
2022-11-29T12:25:45.063Z,16.13
2022-11-29T12:26:56.816Z,16.04
2022-11-29T12:28:01.647Z,15.90
2022-11-29T12:29:05.131Z,15.64
2022-11-29T12:30:14.325Z,15.54
2022-11-29T12:31:48.330Z,15.45
2022-11-29T12:33:04.054Z,15.47
2022-11-29T12:34:26.822Z,15.50
2022-11-29T12:35:47.508Z,15.46
2022-11-29T12:36:58.416Z,15.58
2022-11-29T12:38:11.552Z,15.59
2022-11-29T12:39:37.985Z,15.56
2022-11-29T12:40:48.489Z,15.76
2022-11-29T12:41:57.384Z,15.79
2022-11-29T12:43:11.142Z,15.92
2022-11-29T12:44:25.754Z,16.14
2022-11-29T12:45:42.019Z,16.35
2022-11-29T12:47:13.225Z,16.52
2022-11-29T12:48:30.271Z,16.44
2022-11-29T12:49:44.337Z,16.47
2022-11-29T12:51:02.966Z,16.48
2022-11-29T12:52:16.193Z,16.62
2022-11-29T12:53:30.204Z,16.76
2022-11-29T12:54:49.967Z,16.41
2022-11-29T12:56:02.438Z,16.60
2022-11-29T12:57:11.785Z,16.53
2022-11-29T12:58:23.152Z,16.53
2022-11-29T12:59:39.701Z,16.62
2022-11-29T13:00:50.561Z,16.65
2022-11-29T13:02:05.086Z,16.75
2022-11-29T13:03:20.026Z,16.84
2022-11-29T13:04:32.855Z,17.08
2022-11-29T13:05:50.791Z,16.97
2022-11-29T13:07:00.521Z,17.03
2022-11-29T13:08:16.918Z,16.87
2022-11-29T13:09:38.928Z,16.86
2022-11-29T13:10:57.417Z,17.07
2022-11-29T13:12:06.231Z,17.15
2022-11-29T13:13:21.658Z,17.13
2022-11-29T13:14:42.799Z,17.11
2022-11-29T13:15:53.926Z,17.06
2022-11-29T13:17:00.527Z,17.18
2022-11-29T13:18:12.355Z,17.23
2022-11-29T13:19:23.634Z,17.15
2022-11-29T13:20:40.283Z,17.07
2022-11-29T13:21:52.980Z,17.15
2022-11-29T13:23:03.137Z,16.90
2022-11-29T13:24:12.181Z,16.63
2022-11-29T13:25:17.560Z,16.78
2022-11-29T13:26:23.474Z,16.71
2022-11-29T13:27:31.521Z,16.49
2022-11-29T13:28:35.718Z,16.19
2022-11-29T13:29:39.177Z,16.11
2022-11-29T13:30:41.884Z,16.04
2022-11-29T13:31:46.815Z,16.03
2022-11-29T13:32:58.589Z,15.93
2022-11-29T13:34:09.121Z,15.84
2022-11-29T13:35:20.813Z,15.91
2022-11-29T13:36:31.618Z,15.93
2022-11-29T13:37:39.380Z,15.98
2022-11-29T13:38:47.566Z,15.92
2022-11-29T13:39:59.351Z,15.63
2022-11-29T13:41:13.926Z,15.56
2022-11-29T13:42:27.716Z,15.36
2022-11-29T13:43:40.358Z,15.47
2022-11-29T13:44:48.933Z,15.50
2022-11-29T13:45:59.403Z,15.55
2022-11-29T13:47:06.899Z,15.40
2022-11-29T13:48:33.744Z,15.33
2022-11-29T13:49:56.141Z,15.17
2022-11-29T13:51:00.199Z,15.33
2022-11-29T13:52:06.887Z,15.46
2022-11-29T13:53:16.805Z,15.57
2022-11-29T13:54:32.387Z,15.76
2022-11-29T13:55:43.387Z,16.01
2022-11-29T13:56:47.221Z,15.99
2022-11-29T13:59:25.806Z,16.09
2022-11-29T14:00:31.226Z,15.92
2022-11-29T14:01:45.711Z,15.91
2022-11-29T14:02:49.115Z,16.08
2022-11-29T14:04:04.745Z,16.12
2022-11-29T14:05:08.065Z,16.31
2022-11-29T14:06:14.982Z,16.52
2022-11-29T14:07:21.177Z,16.59
2022-11-29T14:08:37.921Z,16.57
2022-11-29T14:09:58.824Z,16.39
2022-11-29T14:11:05.045Z,16.48
2022-11-29T14:12:26.421Z,16.54
2022-11-29T14:13:35.448Z,16.37
2022-11-29T14:14:49.521Z,16.46
2022-11-29T14:15:58.243Z,16.59
2022-11-29T14:17:03.769Z,16.64
2022-11-29T14:18:09.452Z,16.35
2022-11-29T14:19:28.862Z,16.32
2022-11-29T14:20:55.321Z,16.41
2022-11-29T14:22:22.830Z,16.37
2022-11-29T14:23:36.017Z,16.46
2022-11-29T14:24:43.681Z,16.56
2022-11-29T14:26:25.098Z,16.70
2022-11-29T14:28:02.260Z,16.86
2022-11-29T14:29:44.982Z,16.89
2022-11-29T14:30:51.068Z,16.86
2022-11-29T14:31:56.692Z,16.79
2022-11-29T14:33:04.471Z,16.64
2022-11-29T14:34:10.972Z,16.54
2022-11-29T14:35:22.725Z,16.52
2022-11-29T14:36:40.279Z,16.63
2022-11-29T14:37:54.665Z,16.54
2022-11-29T14:39:05.734Z,16.53
2022-11-29T14:40:30.009Z,16.54
2022-11-29T14:41:45.407Z,16.50
2022-11-29T14:42:49.832Z,16.44
2022-11-29T14:44:13.808Z,16.33
2022-11-29T14:45:27.016Z,16.48
2022-11-29T14:46:32.346Z,16.53
2022-11-29T14:47:39.042Z,16.69
2022-11-29T14:48:45.424Z,16.79
2022-11-29T14:49:49.005Z,16.82
2022-11-29T14:51:09.753Z,16.79
2022-11-29T14:52:23.943Z,16.69
2022-11-29T14:53:34.236Z,16.55
2022-11-29T14:54:54.374Z,16.63
2022-11-29T14:56:30.588Z,16.38
2022-11-29T14:58:15.023Z,16.11
2022-11-29T14:59:48.437Z,16.13
2022-11-29T15:01:08.104Z,16.08
2022-11-29T15:02:32.565Z,16.02
2022-11-29T15:03:43.179Z,15.84
2022-11-29T15:04:46.625Z,15.60
2022-11-29T15:05:56.466Z,15.43
2022-11-29T15:07:00.423Z,15.58
2022-11-29T15:08:10.581Z,15.52
2022-11-29T15:09:21.276Z,15.66
2022-11-29T15:10:29.868Z,15.67
2022-11-29T15:11:46.708Z,15.69
2022-11-29T15:12:51.232Z,15.72
2022-11-29T15:13:59.362Z,15.84
2022-11-29T15:15:20.575Z,15.91
2022-11-29T15:16:37.936Z,15.91
2022-11-29T15:17:50.427Z,15.72